createdAt,value
2022-10-19T00:01:20.062Z,9.51
2022-10-19T00:03:36.757Z,9.24
2022-10-19T00:05:57.163Z,9.18
2022-10-19T00:08:17.539Z,9.45
2022-10-19T00:10:38.480Z,9.24
2022-10-19T00:12:56.797Z,9.24
2022-10-19T00:15:14.982Z,9.35
2022-10-19T00:17:33.152Z,9.24
2022-10-19T00:19:53.624Z,9.40
2022-10-19T00:22:14.286Z,9.51
2022-10-19T00:24:32.778Z,9.61
2022-10-19T00:26:50.891Z,9.56
2022-10-19T00:29:11.531Z,9.51
2022-10-19T00:30:11.447Z,9.56
2022-10-19T00:32:29.566Z,9.35
2022-10-19T00:34:47.700Z,9.51
2022-10-19T00:37:05.744Z,9.51
2022-10-19T00:39:23.863Z,9.51
2022-10-19T00:41:44.491Z,9.56
2022-10-19T00:44:05.579Z,9.24
2022-10-19T00:46:26.042Z,9.24
2022-10-19T00:48:44.233Z,9.51
2022-10-19T00:51:02.665Z,9.51
2022-10-19T00:53:20.609Z,9.51
2022-10-19T00:55:41.195Z,9.51
2022-10-19T00:58:00.367Z,9.56
2022-10-19T01:00:21.011Z,9.51
2022-10-19T01:02:41.517Z,9.35
2022-10-19T01:04:59.778Z,9.45
2022-10-19T01:07:20.376Z,9.56
2022-10-19T01:09:40.888Z,9.18
2022-10-19T01:12:01.368Z,9.24
2022-10-19T01:14:22.118Z,9.24
2022-10-19T01:16:40.069Z,9.24
2022-10-19T01:18:58.298Z,9.29
2022-10-19T01:21:18.908Z,9.24
2022-10-19T01:23:39.120Z,9.24
2022-10-19T01:25:59.963Z,9.45
2022-10-19T01:28:18.175Z,9.45
2022-10-19T01:30:38.886Z,9.35
2022-10-19T01:32:55.239Z,9.24
2022-10-19T01:35:15.923Z,9.24
2022-10-19T01:37:34.325Z,9.51
2022-10-19T01:39:50.550Z,9.45
2022-10-19T01:42:11.649Z,9.56
2022-10-19T01:44:32.335Z,9.45
2022-10-19T01:46:53.422Z,9.24
2022-10-19T01:49:13.957Z,9.24
2022-10-19T01:51:29.540Z,9.29
2022-10-19T01:53:45.242Z,9.24
2022-10-19T01:56:05.870Z,9.35
2022-10-19T01:58:26.398Z,9.24
2022-10-19T02:00:44.555Z,9.45
2022-10-19T02:03:05.002Z,9.51
2022-10-19T02:05:23.220Z,9.02
2022-10-19T02:07:41.297Z,9.24
2022-10-19T02:09:59.368Z,9.51
2022-10-19T02:12:17.524Z,9.24
2022-10-19T02:14:33.908Z,9.24
2022-10-19T02:16:52.009Z,9.29
2022-10-19T02:19:12.847Z,9.45
2022-10-19T02:21:34.754Z,9.24
2022-10-19T02:23:54.242Z,9.35
2022-10-19T02:26:09.507Z,9.51
2022-10-19T02:28:30.172Z,9.61
2022-10-19T02:30:51.234Z,9.35
2022-10-19T02:33:06.824Z,9.40
2022-10-19T02:35:23.400Z,9.08
2022-10-19T02:37:43.984Z,9.24
2022-10-19T02:40:04.573Z,9.24
2022-10-19T02:42:25.082Z,9.29
2022-10-19T02:44:45.813Z,9.13
2022-10-19T02:47:06.352Z,9.24
2022-10-19T02:49:26.530Z,9.29
2022-10-19T02:51:47.580Z,9.08
2022-10-19T02:54:05.282Z,9.18
2022-10-19T02:56:24.698Z,9.45
2022-10-19T02:58:45.396Z,9.08
2022-10-19T03:01:05.910Z,9.24
2022-10-19T03:03:26.508Z,9.24
2022-10-19T03:05:47.397Z,9.13
2022-10-19T03:08:05.139Z,9.35
2022-10-19T03:10:25.772Z,9.18
2022-10-19T03:12:46.917Z,9.02
2022-10-19T03:15:05.021Z,9.08
2022-10-19T03:17:23.214Z,9.29
2022-10-19T03:19:43.712Z,9.02
2022-10-19T03:22:01.947Z,9.02
2022-10-19T03:24:19.918Z,9.29
2022-10-19T03:26:34.604Z,9.02
2022-10-19T03:28:52.616Z,9.02
2022-10-19T03:31:08.157Z,9.08
2022-10-19T03:35:44.299Z,9.35
2022-10-19T03:38:02.416Z,9.08
2022-10-19T03:40:23.122Z,9.08
2022-10-19T03:42:41.382Z,9.08
2022-10-19T03:45:01.966Z,9.24
2022-10-19T03:47:23.275Z,9.08
2022-10-19T03:49:40.384Z,9.02
2022-10-19T03:51:57.810Z,9.18
2022-10-19T03:54:15.883Z,9.08
2022-10-19T03:56:36.484Z,9.08
2022-10-19T03:58:54.611Z,9.08
2022-10-19T04:01:12.666Z,9.13
2022-10-19T04:03:33.162Z,9.35
2022-10-19T04:05:53.826Z,9.29
2022-10-19T04:08:14.502Z,9.35
2022-10-19T04:10:35.577Z,9.35
2022-10-19T04:12:56.692Z,9.35
2022-10-19T04:15:14.838Z,9.13
2022-10-19T04:17:35.591Z,9.35
2022-10-19T04:19:55.957Z,8.97
2022-10-19T04:22:16.595Z,9.08
2022-10-19T04:24:37.206Z,9.02
2022-10-19T04:26:57.768Z,9.40
2022-10-19T04:29:18.397Z,9.35
2022-10-19T04:31:39.062Z,9.13
2022-10-19T04:33:59.601Z,9.08
2022-10-19T04:36:20.687Z,9.29
2022-10-19T04:38:41.294Z,9.24
2022-10-19T04:40:59.257Z,9.35
2022-10-19T04:43:17.459Z,9.35
2022-10-19T04:45:35.561Z,9.29
2022-10-19T04:47:53.592Z,9.35
2022-10-19T04:50:11.685Z,9.08
2022-10-19T04:52:32.163Z,9.29
2022-10-19T04:54:52.950Z,8.97
2022-10-19T04:57:13.473Z,9.40
2022-10-19T04:59:34.151Z,9.02
2022-10-19T05:01:53.189Z,9.08
2022-10-19T05:04:12.226Z,9.13
2022-10-19T05:06:32.787Z,9.35
2022-10-19T05:08:53.386Z,9.40
2022-10-19T05:11:14.013Z,9.35
2022-10-19T05:13:34.605Z,9.02
2022-10-19T05:15:55.207Z,9.24
2022-10-19T05:18:11.799Z,9.02
2022-10-19T05:20:30.168Z,9.18
2022-10-19T05:22:47.535Z,9.18
2022-10-19T05:25:08.106Z,9.08
2022-10-19T05:27:28.679Z,9.08
2022-10-19T05:29:46.783Z,9.35
2022-10-19T05:32:04.918Z,9.24
2022-10-19T05:34:22.904Z,9.08
2022-10-19T05:36:43.609Z,9.08
2022-10-19T05:39:04.231Z,8.86
2022-10-19T05:41:22.827Z,9.08
2022-10-19T05:43:38.254Z,9.35
2022-10-19T05:45:59.448Z,9.08
2022-10-19T05:48:19.833Z,9.29
2022-10-19T05:50:40.370Z,9.08
2022-10-19T05:53:01.003Z,9.18
2022-10-19T05:55:21.629Z,9.08
2022-10-19T05:57:42.753Z,9.35
2022-10-19T06:00:03.320Z,8.86
2022-10-19T06:02:23.896Z,9.29
2022-10-19T06:04:44.435Z,9.13
2022-10-19T06:07:05.103Z,9.08
2022-10-19T06:09:25.719Z,8.86
2022-10-19T06:11:46.846Z,9.13
2022-10-19T06:14:07.259Z,9.08
2022-10-19T06:16:27.971Z,8.97
2022-10-19T06:18:47.203Z,9.13
2022-10-19T06:21:07.632Z,9.13
2022-10-19T06:23:28.314Z,9.18
2022-10-19T06:25:48.851Z,9.40
2022-10-19T06:28:09.436Z,9.08
2022-10-19T06:30:30.198Z,8.81
2022-10-19T06:32:50.798Z,8.81
2022-10-19T06:35:11.287Z,8.97
2022-10-19T06:37:31.630Z,9.02
2022-10-19T06:39:52.431Z,8.81
2022-10-19T06:42:13.072Z,8.86
2022-10-19T06:44:32.639Z,9.08
2022-10-19T06:46:49.157Z,8.97
2022-10-19T06:49:09.798Z,8.86
2022-10-19T06:51:29.872Z,9.29
2022-10-19T06:53:48.952Z,8.92
2022-10-19T06:56:08.570Z,9.02
2022-10-19T06:58:29.157Z,8.92
2022-10-19T07:00:49.793Z,9.13
2022-10-19T07:03:10.335Z,8.97
2022-10-19T07:05:30.925Z,8.97
2022-10-19T07:07:49.040Z,9.13
2022-10-19T07:10:09.643Z,9.02
2022-10-19T07:12:26.224Z,8.86
2022-10-19T07:14:47.392Z,9.13
2022-10-19T07:17:07.908Z,8.86
2022-10-19T07:19:28.591Z,8.92
2022-10-19T07:21:49.673Z,8.86
2022-10-19T07:24:10.767Z,9.02
2022-10-19T07:26:31.305Z,8.92
2022-10-19T07:28:51.916Z,9.18
2022-10-19T07:31:08.526Z,8.65
2022-10-19T07:33:29.083Z,8.86
2022-10-19T07:35:49.757Z,8.97
2022-10-19T07:38:10.345Z,9.13
2022-10-19T07:40:30.924Z,9.13
2022-10-19T07:42:51.417Z,8.81
2022-10-19T07:45:12.077Z,9.13
2022-10-19T07:47:32.916Z,8.86
2022-10-19T07:49:53.233Z,8.97
2022-10-19T07:52:13.960Z,8.92
2022-10-19T07:54:34.996Z,9.02
2022-10-19T07:56:55.595Z,8.86
2022-10-19T07:59:16.648Z,8.86
2022-10-19T08:01:36.859Z,9.02
2022-10-19T08:05:04.291Z,8.97
2022-10-19T08:07:18.010Z,9.13
2022-10-19T08:09:52.797Z,9.13
2022-10-19T08:10:39.100Z,9.13
2022-10-19T08:12:59.116Z,8.86
2022-10-19T08:15:20.033Z,8.92
2022-10-19T08:17:40.621Z,8.97
2022-10-19T08:20:01.205Z,9.13
2022-10-19T08:22:21.805Z,8.81
2022-10-19T08:24:42.418Z,8.70
2022-10-19T08:27:03.071Z,9.08
2022-10-19T08:29:25.606Z,8.65
2022-10-19T08:31:44.738Z,9.13
2022-10-19T08:34:01.339Z,9.13
2022-10-19T08:36:21.949Z,8.92
2022-10-19T08:38:42.497Z,8.86
2022-10-19T08:41:03.017Z,8.97
2022-10-19T08:43:24.724Z,9.13
2022-10-19T08:45:45.798Z,9.13
2022-10-19T08:48:06.325Z,9.02
2022-10-19T08:50:27.010Z,8.70
2022-10-19T08:52:47.602Z,8.70
2022-10-19T08:55:08.176Z,8.86
2022-10-19T08:57:26.248Z,8.70
2022-10-19T08:59:42.806Z,8.86
2022-10-19T09:02:03.462Z,8.97
2022-10-19T09:04:24.521Z,8.92
2022-10-19T09:06:42.462Z,8.92
2022-10-19T09:09:03.217Z,8.92
2022-10-19T09:11:19.794Z,8.97
2022-10-19T09:13:53.235Z,8.81
2022-10-19T09:15:56.938Z,8.70
2022-10-19T09:18:17.557Z,8.65
2022-10-19T09:20:38.144Z,8.70
2022-10-19T09:22:57.356Z,8.92
2022-10-19T09:25:17.942Z,8.97
2022-10-19T09:27:36.049Z,8.92
2022-10-19T09:29:54.667Z,8.70
2022-10-19T09:32:14.699Z,8.92
2022-10-19T09:34:33.761Z,8.75
2022-10-19T09:36:54.342Z,8.97
2022-10-19T09:39:14.967Z,9.02
2022-10-19T09:41:35.873Z,8.65
2022-10-19T09:43:54.899Z,8.70
2022-10-19T09:46:20.033Z,8.70
2022-10-19T09:48:35.784Z,8.65
2022-10-19T09:50:56.698Z,8.59
2022-10-19T09:53:17.390Z,8.92
2022-10-19T09:55:38.063Z,9.02
2022-10-19T09:57:58.570Z,8.86
2022-10-19T10:00:19.174Z,8.81
2022-10-19T10:02:38.312Z,8.70
2022-10-19T10:04:58.799Z,8.70
2022-10-19T10:07:19.461Z,8.92
2022-10-19T10:09:40.474Z,8.92
2022-10-19T10:12:01.055Z,8.70
2022-10-19T10:14:21.666Z,8.70
2022-10-19T10:16:42.258Z,8.70
2022-10-19T10:19:01.356Z,8.65
2022-10-19T10:21:25.542Z,8.92
2022-10-19T10:23:42.512Z,8.70
2022-10-19T10:26:03.195Z,8.70
2022-10-19T10:28:23.699Z,8.97
2022-10-19T10:30:44.342Z,8.70
2022-10-19T10:33:15.855Z,8.65
2022-10-19T10:34:16.300Z,8.70
2022-10-19T10:35:05.826Z,8.70
2022-10-19T10:37:25.553Z,8.92
2022-10-19T10:39:46.569Z,8.70
2022-10-19T10:42:03.134Z,8.75
2022-10-19T10:44:23.819Z,8.92
2022-10-19T10:46:44.322Z,8.92
2022-10-19T10:49:04.963Z,8.92
2022-10-19T10:51:21.481Z,8.97
2022-10-19T10:53:42.185Z,8.92
2022-10-19T10:56:02.944Z,8.97
2022-10-19T10:58:25.602Z,8.70
2022-10-19T11:00:41.859Z,8.97
2022-10-19T11:03:02.549Z,8.65
2022-10-19T11:05:23.157Z,8.92
2022-10-19T11:07:43.677Z,8.86
2022-10-19T11:10:04.292Z,8.75
2022-10-19T11:12:24.926Z,8.70
2022-10-19T11:14:45.707Z,8.75
2022-10-19T11:17:06.049Z,8.97
2022-10-19T11:19:26.661Z,8.70
2022-10-19T11:21:45.782Z,8.65
2022-10-19T11:24:06.369Z,8.59
2022-10-19T11:26:26.878Z,8.49
2022-10-19T11:28:47.838Z,8.49
2022-10-19T11:31:08.439Z,8.49
2022-10-19T11:33:28.975Z,8.75
2022-10-19T11:35:47.341Z,8.70
2022-10-19T11:38:19.743Z,8.43
2022-10-19T11:39:08.214Z,8.75
2022-10-19T11:41:24.251Z,8.70
2022-10-19T11:43:42.417Z,8.49
2022-10-19T11:46:02.951Z,8.70
2022-10-19T11:48:23.604Z,8.70
2022-10-19T11:50:49.637Z,8.54
2022-10-19T11:53:04.750Z,8.81
2022-10-19T11:55:25.366Z,8.49
2022-10-19T11:57:46.018Z,8.59
2022-10-19T12:00:14.368Z,8.49
2022-10-19T12:01:04.605Z,8.70
2022-10-19T12:03:20.643Z,8.97
2022-10-19T12:05:41.216Z,8.49
2022-10-19T12:07:56.904Z,8.49
2022-10-19T12:10:17.458Z,8.43
2022-10-19T12:12:38.277Z,8.49
2022-10-19T12:14:57.227Z,8.43
2022-10-19T12:19:34.383Z,8.86
2022-10-19T12:21:55.258Z,8.70
2022-10-19T12:24:15.572Z,8.75
2022-10-19T12:26:36.214Z,8.49
2022-10-19T12:28:54.801Z,8.75
2022-10-19T12:31:11.349Z,8.49
2022-10-19T12:33:31.441Z,8.75
2022-10-19T12:35:52.056Z,8.70
2022-10-19T12:38:12.524Z,8.49
2022-10-19T12:40:33.270Z,8.49
2022-10-19T12:42:53.860Z,8.59
2022-10-19T12:45:15.440Z,8.65
2022-10-19T12:47:33.774Z,8.81
2022-10-19T12:49:51.786Z,8.70
2022-10-19T12:52:08.221Z,8.65
2022-10-19T12:54:28.783Z,8.49
2022-10-19T12:56:49.479Z,8.49
2022-10-19T12:59:10.002Z,8.49
2022-10-19T13:01:30.635Z,8.54
2022-10-19T13:03:51.292Z,8.75
2022-10-19T13:06:11.812Z,8.70
2022-10-19T13:08:30.279Z,8.81
2022-10-19T13:10:50.702Z,8.49
2022-10-19T13:13:11.387Z,8.54
2022-10-19T13:15:33.585Z,8.54
2022-10-19T13:17:54.039Z,8.49
2022-10-19T13:20:14.750Z,8.75
2022-10-19T13:22:35.628Z,8.49
2022-10-19T13:24:56.222Z,8.54
2022-10-19T13:27:16.792Z,8.49
2022-10-19T13:29:37.958Z,8.81
2022-10-19T13:31:56.044Z,8.43
2022-10-19T13:34:16.603Z,8.54
2022-10-19T13:36:37.239Z,8.49
2022-10-19T13:38:57.802Z,8.81
2022-10-19T13:41:18.443Z,8.65
2022-10-19T13:43:38.992Z,8.70
2022-10-19T13:45:55.473Z,8.70
2022-10-19T13:48:16.363Z,8.49
2022-10-19T13:50:36.788Z,8.49
2022-10-19T13:52:57.490Z,8.70
2022-10-19T13:55:17.991Z,8.70
2022-10-19T13:57:38.529Z,8.75
2022-10-19T13:59:59.188Z,8.49
2022-10-19T14:02:20.225Z,8.59
2022-10-19T14:04:40.849Z,8.33
2022-10-19T14:07:01.488Z,8.54
2022-10-19T14:09:23.478Z,8.49
2022-10-19T14:11:43.351Z,8.59
2022-10-19T14:14:04.108Z,8.43
2022-10-19T14:16:23.587Z,8.27
2022-10-19T14:18:44.156Z,8.43
2022-10-19T14:21:04.853Z,8.65
2022-10-19T14:23:25.634Z,8.54
2022-10-19T14:25:45.994Z,8.43
2022-10-19T14:28:06.553Z,8.81
2022-10-19T14:30:27.147Z,8.49
2022-10-19T14:32:47.724Z,8.75
2022-10-19T14:35:08.387Z,8.22
2022-10-19T14:37:25.833Z,8.54
2022-10-19T14:39:46.600Z,8.75
2022-10-19T14:42:07.160Z,8.75
2022-10-19T14:44:27.664Z,8.70
2022-10-19T14:46:48.308Z,8.49
2022-10-19T14:49:08.866Z,8.65
2022-10-19T14:51:29.514Z,8.27
2022-10-19T14:53:48.611Z,8.27
2022-10-19T14:56:07.691Z,8.59
2022-10-19T14:58:28.284Z,8.27
2022-10-19T15:00:46.397Z,8.54
2022-10-19T15:03:02.941Z,8.27
2022-10-19T15:05:23.553Z,8.70
2022-10-19T15:07:41.598Z,8.33
2022-10-19T15:10:02.329Z,8.54
2022-10-19T15:12:20.912Z,8.70
2022-10-19T15:14:40.958Z,8.27
2022-10-19T15:16:56.948Z,8.43
2022-10-19T15:19:13.243Z,8.75
2022-10-19T15:21:33.941Z,8.59
2022-10-19T15:23:53.135Z,8.27
2022-10-19T15:26:16.432Z,8.22
2022-10-19T15:28:27.670Z,8.33
2022-10-19T15:30:43.964Z,8.27
2022-10-19T15:33:00.963Z,8.65
2022-10-19T15:35:18.837Z,8.65
2022-10-19T15:37:33.607Z,8.54
2022-10-19T15:39:54.336Z,8.43
2022-10-19T15:42:14.812Z,8.54
2022-10-19T15:44:35.441Z,8.54
2022-10-19T15:46:54.666Z,8.27
2022-10-19T15:49:15.056Z,8.59
2022-10-19T15:51:31.723Z,8.54
2022-10-19T15:53:52.377Z,8.49
2022-10-19T15:56:13.651Z,8.49
2022-10-19T15:58:29.513Z,8.43
2022-10-19T16:00:46.173Z,8.54
2022-10-19T16:03:06.718Z,8.70
2022-10-19T16:05:34.232Z,8.27
2022-10-19T16:07:52.317Z,8.22
2022-10-19T16:10:10.512Z,8.22
2022-10-19T16:12:29.577Z,8.27
2022-10-19T16:14:50.186Z,8.59
2022-10-19T16:17:10.751Z,8.43
2022-10-19T16:19:31.380Z,8.33
2022-10-19T16:21:53.545Z,8.49
2022-10-19T16:24:09.973Z,8.22
2022-10-19T16:26:28.625Z,8.38
2022-10-19T16:28:49.129Z,8.49
2022-10-19T16:31:10.732Z,8.65
2022-10-19T16:33:27.356Z,8.33
2022-10-19T16:35:48.000Z,8.59
2022-10-19T16:38:08.584Z,8.70
2022-10-19T16:40:27.001Z,8.38
2022-10-19T16:42:44.279Z,8.54
2022-10-19T16:45:04.468Z,8.27
2022-10-19T16:47:22.498Z,8.33
2022-10-19T16:49:41.594Z,8.49
2022-10-19T16:52:00.677Z,8.54
2022-10-19T16:54:18.799Z,8.54
2022-10-19T16:56:34.348Z,8.27
2022-10-19T16:58:54.923Z,8.54
2022-10-19T17:01:15.615Z,8.49
2022-10-19T17:03:37.891Z,8.49
2022-10-19T17:05:54.184Z,8.59
2022-10-19T17:08:14.968Z,8.65
2022-10-19T17:10:35.468Z,8.49
2022-10-19T17:13:07.547Z,8.54
2022-10-19T17:15:42.572Z,8.38
2022-10-19T17:17:56.665Z,8.43
2022-10-19T17:20:17.240Z,8.38
2022-10-19T17:22:35.654Z,8.49
2022-10-19T17:24:56.496Z,8.59
2022-10-19T17:27:17.207Z,8.27
2022-10-19T17:29:38.177Z,8.27
2022-10-19T17:31:58.769Z,8.49
2022-10-19T17:34:17.160Z,8.49
2022-10-19T17:36:48.613Z,8.11
2022-10-19T17:58:53.672Z,8.33
2022-10-19T18:44:14.004Z,8.49
2022-10-19T18:47:55.265Z,8.11
2022-10-19T19:58:04.034Z,8.38
2022-10-19T20:00:24.241Z,8.11
2022-10-19T20:02:44.265Z,8.11
2022-10-19T20:05:05.223Z,8.11
2022-10-19T20:07:25.547Z,8.22
2022-10-19T20:09:47.108Z,8.27
2022-10-19T20:12:08.768Z,8.38
2022-10-19T20:14:29.690Z,8.49
2022-10-19T20:16:46.356Z,8.33
2022-10-19T20:19:07.265Z,8.00
2022-10-19T20:21:25.100Z,8.33
2022-10-19T20:23:45.697Z,8.27
2022-10-19T20:26:06.349Z,8.54
2022-10-19T20:28:26.959Z,8.06
2022-10-19T20:30:48.081Z,8.27
2022-10-19T20:33:08.670Z,8.38
2022-10-19T20:35:25.191Z,8.06
2022-10-19T20:37:46.883Z,8.22
2022-10-19T20:40:08.837Z,8.33
2022-10-19T20:42:23.924Z,8.38
2022-10-19T20:44:40.559Z,8.06
2022-10-19T20:47:01.080Z,8.38
2022-10-19T20:49:24.511Z,8.00
2022-10-19T20:51:43.888Z,8.38
2022-10-19T20:54:04.429Z,8.38
2022-10-19T20:56:22.839Z,8.11
2022-10-19T20:58:41.301Z,8.06
2022-10-19T21:00:58.813Z,8.33
2022-10-19T21:03:19.461Z,8.54
2022-10-19T21:05:41.046Z,8.22
2022-10-19T21:08:01.661Z,8.27
2022-10-19T21:10:22.168Z,8.11
2022-10-19T21:12:42.957Z,8.11
2022-10-19T21:15:03.546Z,8.33
2022-10-19T21:17:24.227Z,8.11
2022-10-19T21:19:42.328Z,8.33
2022-10-19T21:22:02.877Z,8.06
2022-10-19T21:24:24.533Z,8.16
2022-10-19T21:26:41.124Z,8.27
2022-10-19T21:28:57.655Z,8.33
2022-10-19T21:31:16.714Z,8.06
2022-10-19T21:33:37.812Z,8.00
2022-10-19T21:35:58.398Z,8.16
2022-10-19T21:38:19.062Z,8.06
2022-10-19T21:40:39.758Z,8.22
2022-10-19T21:42:58.253Z,8.22
2022-10-19T21:45:30.824Z,8.11
2022-10-19T21:47:35.566Z,8.33
2022-10-19T21:49:56.963Z,8.33
2022-10-19T21:52:17.533Z,8.33
2022-10-19T21:54:35.678Z,8.11
2022-10-19T21:56:54.716Z,8.11
2022-10-19T21:59:15.330Z,8.22
2022-10-19T22:01:37.312Z,8.22
2022-10-19T22:03:50.004Z,8.38
2022-10-19T22:06:11.182Z,8.06
2022-10-19T22:08:29.272Z,8.22
2022-10-19T22:10:49.960Z,8.11
2022-10-19T22:13:10.386Z,8.38
2022-10-19T22:15:32.056Z,8.06
2022-10-19T22:17:52.642Z,8.38
2022-10-19T22:20:13.674Z,8.11
2022-10-19T22:22:34.581Z,8.27
2022-10-19T22:24:54.939Z,8.16
2022-10-19T22:27:11.503Z,8.33
2022-10-19T22:29:32.104Z,8.06
2022-10-19T22:31:52.819Z,8.06
2022-10-19T22:34:10.947Z,8.16
2022-10-19T22:36:31.498Z,8.33
2022-10-19T22:38:50.538Z,8.38
2022-10-19T22:41:07.113Z,8.11
2022-10-19T22:43:23.653Z,8.33
2022-10-19T22:45:44.270Z,8.11
2022-10-19T22:48:04.948Z,8.16
2022-10-19T22:50:25.472Z,8.00
2022-10-19T22:52:46.019Z,8.33
2022-10-19T22:55:06.644Z,8.06
2022-10-19T22:57:27.250Z,8.33
2022-10-19T22:59:46.465Z,8.00
2022-10-19T23:02:07.181Z,8.16
2022-10-19T23:04:27.550Z,8.33
2022-10-19T23:06:48.106Z,8.33
2022-10-19T23:09:09.200Z,8.38
2022-10-19T23:11:29.821Z,8.38
2022-10-19T23:13:47.957Z,8.06
2022-10-19T23:16:06.091Z,8.16
2022-10-19T23:18:24.149Z,8.16
2022-10-19T23:20:44.657Z,8.06
2022-10-19T23:23:05.282Z,8.06
2022-10-19T23:25:25.866Z,7.95
2022-10-19T23:27:43.978Z,8.16
2022-10-19T23:30:04.622Z,7.95
2022-10-19T23:32:25.171Z,7.90
2022-10-19T23:34:48.270Z,8.11
2022-10-19T23:37:06.340Z,7.90
2022-10-19T23:39:25.356Z,8.16
2022-10-19T23:41:46.045Z,7.84
2022-10-19T23:44:07.067Z,7.90
2022-10-19T23:46:25.307Z,8.11
2022-10-19T23:48:46.811Z,7.90
2022-10-19T23:51:06.875Z,7.95
2022-10-19T23:53:24.975Z,7.95
2022-10-19T23:55:45.530Z,8.16
2022-10-19T23:58:06.221Z,8.16
